Decoded Metar for UKLL (LVOV in UKRAINE) (IATA:LWO) | Meteo·Mobile Aviation Weather
aviador You're here:

UKLL Decoded Metar

LVOV in UKRAINE
Report Time2018-09-18 23:00:00
UTC Time2018-09-18 23:20:33
Flight Rules vfr VFR
Wind160° at 4 kt
W.Decomp.*RWY 13: 3.6 kt HW 1.8 kt RCW
W.Rank160° ranks 13
Current wind is below 160° avg. (5.5)
Visibility9999 m
Phenomena:N/A
Clouds:N/A
Expected CloudBase > 400 ft AGL from Temp-Dew spread
CeilingNone
Temp12°C (ISA -1)
Dew Point11°C (94% RH)
AAT10.9°C
QNH1022 hPa
Density Alt837 ft
Elevation1,066 ft
Report Wrong Elevation
Raw Report
METAR UKLL 182300Z 16002MPS CAVOK 12/11 Q1022 R13/D NOSIG=

Extra information for UKLL:More info

Metar Taf Metar & Taf Last 4 Metars F.Rules Stats Wind Profile Meteogram Temp Stats Airport Information Weather charts Add Link Nearby VenuesMetar ALERT Operation Metar Decoded Social comments